YBBN

Brisbane Airport

Airport
ICAO code
YBBN
IATA Code
BNE
Summary
ICAO Region
APAC
ICAO Territory
Location

Brisbane, Queensland

Serving
Brisbane
Elevation
13 ft
Coordinates
27° 23' 30" S , 153° 7' 21" E
KCC
Cfa
Metar
Observation
YBBN 171300Z 25006KT CAVOK 11/08 Q1019
Station
Brisbane Airport M. O
Date/Time
2022-08-17 13:00:00
Wind direction
250°
Wind speed
06 kts
Lowest cloud amount
clouds and visibility OK
Temperature
11°C
Dew point
8°C
Humidity
81%
QNH
1019 hPa
Weather condition
n/a

Description

Serves the city of Brisbane and the surrounding metropolitan area.

Climatology

Humid “subtropical” climate (Köppen climate classification Cfa) - characterized by hot, humid summers and cool winters. Significant amounts of precipitation occur in all seasons in most areas. Most summer rainfall occurs during thunderstorms and occasional tropical storms.

SKYbrary Partners:

Safety knowledge contributed by: